sensor_id;sensor_type;location;lat;lon;timestamp;temperature;humidity
4306;DHT22;2166;49.926;8.608;2024-03-23T00:53:44;9.70;65.30
4306;DHT22;2166;49.926;8.608;2024-03-23T00:56:11;9.80;66.20
4306;DHT22;2166;49.926;8.608;2024-03-23T00:58:38;9.90;67.50
4306;DHT22;2166;49.926;8.608;2024-03-23T01:01:05;10.10;68.00
4306;DHT22;2166;49.926;8.608;2024-03-23T01:03:31;10.20;68.90
4306;DHT22;2166;49.926;8.608;2024-03-23T01:05:59;10.30;70.00
4306;DHT22;2166;49.926;8.608;2024-03-23T01:08:25;10.30;70.50
4306;DHT22;2166;49.926;8.608;2024-03-23T01:10:58;10.30;70.50
4306;DHT22;2166;49.926;8.608;2024-03-23T01:13:25;10.40;70.60
4306;DHT22;2166;49.926;8.608;2024-03-23T01:15:54;10.50;71.00
4306;DHT22;2166;49.926;8.608;2024-03-23T01:18:20;10.60;71.30
4306;DHT22;2166;49.926;8.608;2024-03-23T01:20:48;10.60;71.70
4306;DHT22;2166;49.926;8.608;2024-03-23T01:23:14;10.70;71.70
4306;DHT22;2166;49.926;8.608;2024-03-23T01:25:41;10.80;72.10
4306;DHT22;2166;49.926;8.608;2024-03-23T01:28:09;10.90;72.50
4306;DHT22;2166;49.926;8.608;2024-03-23T01:30:36;11.00;72.90
4306;DHT22;2166;49.926;8.608;2024-03-23T01:33:03;11.10;73.20
4306;DHT22;2166;49.926;8.608;2024-03-23T01:35:30;11.20;73.20
4306;DHT22;2166;49.926;8.608;2024-03-23T01:37:56;11.20;73.50
4306;DHT22;2166;49.926;8.608;2024-03-23T01:40:23;11.30;73.50
4306;DHT22;2166;49.926;8.608;2024-03-23T01:42:56;11.40;73.90
4306;DHT22;2166;49.926;8.608;2024-03-23T01:45:25;11.40;74.10
4306;DHT22;2166;49.926;8.608;2024-03-23T01:47:52;11.40;74.60
4306;DHT22;2166;49.926;8.608;2024-03-23T01:50:20;11.30;74.40
4306;DHT22;2166;49.926;8.608;2024-03-23T01:52:47;11.30;74.50
4306;DHT22;2166;49.926;8.608;2024-03-23T01:55:14;11.30;74.70
4306;DHT22;2166;49.926;8.608;2024-03-23T01:57:41;11.30;74.40
4306;DHT22;2166;49.926;8.608;2024-03-23T02:00:10;11.30;74.40
4306;DHT22;2166;49.926;8.608;2024-03-23T02:02:43;11.20;74.30
4306;DHT22;2166;49.926;8.608;2024-03-23T02:05:11;11.10;73.80
4306;DHT22;2166;49.926;8.608;2024-03-23T02:07:38;11.00;72.90
4306;DHT22;2166;49.926;8.608;2024-03-23T02:10:06;10.90;72.30
4306;DHT22;2166;49.926;8.608;2024-03-23T02:12:33;10.70;71.70
4306;DHT22;2166;49.926;8.608;2024-03-23T02:15:01;10.60;70.70
4306;DHT22;2166;49.926;8.608;2024-03-23T02:17:28;10.30;69.40
4306;DHT22;2166;49.926;8.608;2024-03-23T02:19:58;10.10;67.60
4306;DHT22;2166;49.926;8.608;2024-03-23T02:22:24;9.90;65.80
4306;DHT22;2166;49.926;8.608;2024-03-23T02:24:53;9.80;64.90
4306;DHT22;2166;49.926;8.608;2024-03-23T02:27:19;9.70;64.10
4306;DHT22;2166;49.926;8.608;2024-03-23T02:29:46;9.70;63.60
4306;DHT22;2166;49.926;8.608;2024-03-23T02:32:12;9.70;62.90
4306;DHT22;2166;49.926;8.608;2024-03-23T02:34:40;9.60;62.60
4306;DHT22;2166;49.926;8.608;2024-03-23T02:37:10;9.60;62.20
4306;DHT22;2166;49.926;8.608;2024-03-23T02:39:38;9.70;62.60
4306;DHT22;2166;49.926;8.608;2024-03-23T02:42:06;9.70;63.30
4306;DHT22;2166;49.926;8.608;2024-03-23T02:44:33;9.70;63.60
4306;DHT22;2166;49.926;8.608;2024-03-23T02:46:59;9.70;63.60
4306;DHT22;2166;49.926;8.608;2024-03-23T02:49:27;9.70;63.40
4306;DHT22;2166;49.926;8.608;2024-03-23T02:51:53;9.70;63.40
4306;DHT22;2166;49.926;8.608;2024-03-23T02:54:20;9.60;63.10
4306;DHT22;2166;49.926;8.608;2024-03-23T02:56:47;9.70;62.60
4306;DHT22;2166;49.926;8.608;2024-03-23T02:59:15;9.70;63.20
4306;DHT22;2166;49.926;8.608;2024-03-23T03:01:42;9.80;63.40
4306;DHT22;2166;49.926;8.608;2024-03-23T03:04:09;9.80;63.90
4306;DHT22;2166;49.926;8.608;2024-03-23T03:06:35;9.80;64.00
4306;DHT22;2166;49.926;8.608;2024-03-23T03:09:03;9.80;63.80
4306;DHT22;2166;49.926;8.608;2024-03-23T03:11:30;9.80;63.80
4306;DHT22;2166;49.926;8.608;2024-03-23T03:13:57;9.80;63.60
4306;DHT22;2166;49.926;8.608;2024-03-23T03:16:27;9.70;63.20
4306;DHT22;2166;49.926;8.608;2024-03-23T03:18:55;9.60;63.10
4306;DHT22;2166;49.926;8.608;2024-03-23T03:21:21;9.60;62.90
4306;DHT22;2166;49.926;8.608;2024-03-23T03:23:49;9.60;63.30
4306;DHT22;2166;49.926;8.608;2024-03-23T03:26:17;9.60;63.10
4306;DHT22;2166;49.926;8.608;2024-03-23T03:28:45;9.50;62.80
4306;DHT22;2166;49.926;8.608;2024-03-23T03:31:14;9.50;62.60
4306;DHT22;2166;49.926;8.608;2024-03-23T03:33:44;9.60;62.90
4306;DHT22;2166;49.926;8.608;2024-03-23T03:36:10;9.60;63.40
4306;DHT22;2166;49.926;8.608;2024-03-23T03:38:38;9.60;63.30
4306;DHT22;2166;49.926;8.608;2024-03-23T03:41:04;9.60;63.20
4306;DHT22;2166;49.926;8.608;2024-03-23T03:43:33;9.60;62.90
4306;DHT22;2166;49.926;8.608;2024-03-23T03:46:00;9.60;62.70
4306;DHT22;2166;49.926;8.608;2024-03-23T03:48:28;9.50;62.30
4306;DHT22;2166;49.926;8.608;2024-03-23T03:50:56;9.50;61.80
4306;DHT22;2166;49.926;8.608;2024-03-23T03:53:23;9.60;61.60
4306;DHT22;2166;49.926;8.608;2024-03-23T03:55:50;9.60;61.20
4306;DHT22;2166;49.926;8.608;2024-03-23T03:58:17;9.60;60.90
4306;DHT22;2166;49.926;8.608;2024-03-23T04:00:43;9.60;60.70
4306;DHT22;2166;49.926;8.608;2024-03-23T04:03:11;9.60;60.50
4306;DHT22;2166;49.926;8.608;2024-03-23T04:05:37;9.60;60.50
4306;DHT22;2166;49.926;8.608;2024-03-23T04:08:07;9.70;60.40
4306;DHT22;2166;49.926;8.608;2024-03-23T04:10:33;9.70;60.20
4306;DHT22;2166;49.926;8.608;2024-03-23T04:13:01;9.80;60.20
4306;DHT22;2166;49.926;8.608;2024-03-23T04:15:30;9.80;60.70
4306;DHT22;2166;49.926;8.608;2024-03-23T04:17:57;9.90;60.80
4306;DHT22;2166;49.926;8.608;2024-03-23T04:20:24;10.00;60.90
4306;DHT22;2166;49.926;8.608;2024-03-23T04:22:51;10.10;59.70
4306;DHT22;2166;49.926;8.608;2024-03-23T04:25:19;10.00;57.90
4306;DHT22;2166;49.926;8.608;2024-03-23T04:27:46;9.90;57.40
4306;DHT22;2166;49.926;8.608;2024-03-23T04:30:13;9.70;56.10
4306;DHT22;2166;49.926;8.608;2024-03-23T04:32:41;9.60;55.60
4306;DHT22;2166;49.926;8.608;2024-03-23T04:35:08;9.40;54.40
4306;DHT22;2166;49.926;8.608;2024-03-23T04:37:36;9.20;54.00
4306;DHT22;2166;49.926;8.608;2024-03-23T04:40:04;9.10;53.70
4306;DHT22;2166;49.926;8.608;2024-03-23T04:42:34;9.00;53.20
4306;DHT22;2166;49.926;8.608;2024-03-23T04:45:02;8.90;53.40
4306;DHT22;2166;49.926;8.608;2024-03-23T04:47:29;8.80;54.90
4306;DHT22;2166;49.926;8.608;2024-03-23T04:49:56;8.60;56.10
4306;DHT22;2166;49.926;8.608;2024-03-23T04:52:24;8.40;55.80
4306;DHT22;2166;49.926;8.608;2024-03-23T04:54:51;8.40;55.00
4306;DHT22;2166;49.926;8.608;2024-03-23T04:57:18;8.30;54.50
4306;DHT22;2166;49.926;8.608;2024-03-23T04:59:47;8.30;54.50
4306;DHT22;2166;49.926;8.608;2024-03-23T05:02:15;8.20;54.40
4306;DHT22;2166;49.926;8.608;2024-03-23T05:04:42;8.20;54.40
4306;DHT22;2166;49.926;8.608;2024-03-23T05:07:09;8.10;54.00
4306;DHT22;2166;49.926;8.608;2024-03-23T05:09:35;8.10;53.30
4306;DHT22;2166;49.926;8.608;2024-03-23T05:12:03;8.00;53.50
4306;DHT22;2166;49.926;8.608;2024-03-23T05:14:30;8.00;53.70
4306;DHT22;2166;49.926;8.608;2024-03-23T05:16:58;7.90;53.60
4306;DHT22;2166;49.926;8.608;2024-03-23T05:19:25;7.90;53.30
4306;DHT22;2166;49.926;8.608;2024-03-23T05:21:52;7.90;53.30
4306;DHT22;2166;49.926;8.608;2024-03-23T05:24:19;7.80;53.00
4306;DHT22;2166;49.926;8.608;2024-03-23T05:26:46;7.80;53.10
4306;DHT22;2166;49.926;8.608;2024-03-23T05:29:12;7.70;53.00
4306;DHT22;2166;49.926;8.608;2024-03-23T05:31:39;7.60;53.00
4306;DHT22;2166;49.926;8.608;2024-03-23T05:34:09;7.60;52.60
4306;DHT22;2166;49.926;8.608;2024-03-23T05:36:36;7.60;52.50
4306;DHT22;2166;49.926;8.608;2024-03-23T05:39:03;7.60;53.00
4306;DHT22;2166;49.926;8.608;2024-03-23T05:41:30;7.60;53.60
4306;DHT22;2166;49.926;8.608;2024-03-23T05:43:57;7.60;53.00
4306;DHT22;2166;49.926;8.608;2024-03-23T05:46:24;7.60;54.20
4306;DHT22;2166;49.926;8.608;2024-03-23T05:48:50;7.60;53.90
4306;DHT22;2166;49.926;8.608;2024-03-23T05:51:27;7.70;54.40
4306;DHT22;2166;49.926;8.608;2024-03-23T05:53:53;7.70;54.50
4306;DHT22;2166;49.926;8.608;2024-03-23T05:56:20;7.70;54.00
4306;DHT22;2166;49.926;8.608;2024-03-23T05:58:47;7.70;54.80
4306;DHT22;2166;49.926;8.608;2024-03-23T06:01:14;7.70;54.70
4306;DHT22;2166;49.926;8.608;2024-03-23T06:03:40;7.70;54.10
4306;DHT22;2166;49.926;8.608;2024-03-23T06:06:09;7.70;54.50
4306;DHT22;2166;49.926;8.608;2024-03-23T06:08:39;7.70;55.40
4306;DHT22;2166;49.926;8.608;2024-03-23T06:11:06;7.70;57.90
4306;DHT22;2166;49.926;8.608;2024-03-23T06:13:33;7.60;58.20
4306;DHT22;2166;49.926;8.608;2024-03-23T06:16:01;7.50;59.50
4306;DHT22;2166;49.926;8.608;2024-03-23T06:18:27;7.50;59.40
4306;DHT22;2166;49.926;8.608;2024-03-23T06:20:54;7.50;60.80
4306;DHT22;2166;49.926;8.608;2024-03-23T06:23:21;7.50;62.50
4306;DHT22;2166;49.926;8.608;2024-03-23T06:25:49;7.50;63.10
4306;DHT22;2166;49.926;8.608;2024-03-23T06:28:16;7.50;62.90
4306;DHT22;2166;49.926;8.608;2024-03-23T06:30:44;7.60;64.40
4306;DHT22;2166;49.926;8.608;2024-03-23T06:33:10;7.70;66.00
4306;DHT22;2166;49.926;8.608;2024-03-23T06:35:37;7.70;68.70
4306;DHT22;2166;49.926;8.608;2024-03-23T06:38:04;7.80;67.30
4306;DHT22;2166;49.926;8.608;2024-03-23T06:40:32;7.80;66.30
4306;DHT22;2166;49.926;8.608;2024-03-23T06:42:59;7.80;69.90
4306;DHT22;2166;49.926;8.608;2024-03-23T06:45:26;7.80;67.20
4306;DHT22;2166;49.926;8.608;2024-03-23T06:47:53;7.80;70.50
4306;DHT22;2166;49.926;8.608;2024-03-23T06:50:22;7.80;70.10
4306;DHT22;2166;49.926;8.608;2024-03-23T06:52:49;7.80;71.80
4306;DHT22;2166;49.926;8.608;2024-03-23T06:55:17;7.80;70.30
4306;DHT22;2166;49.926;8.608;2024-03-23T06:57:43;7.80;71.50
4306;DHT22;2166;49.926;8.608;2024-03-23T07:00:13;7.60;73.10
4306;DHT22;2166;49.926;8.608;2024-03-23T07:02:41;7.50;72.50
4306;DHT22;2166;49.926;8.608;2024-03-23T07:05:10;7.40;73.70
4306;DHT22;2166;49.926;8.608;2024-03-23T07:07:37;7.20;72.90
4306;DHT22;2166;49.926;8.608;2024-03-23T07:10:06;7.10;72.40
4306;DHT22;2166;49.926;8.608;2024-03-23T07:12:32;7.10;72.00
4306;DHT22;2166;49.926;8.608;2024-03-23T07:14:59;7.20;73.40
4306;DHT22;2166;49.926;8.608;2024-03-23T07:17:27;7.40;73.80
4306;DHT22;2166;49.926;8.608;2024-03-23T07:19:55;8.00;74.90
4306;DHT22;2166;49.926;8.608;2024-03-23T07:22:21;8.20;76.00
4306;DHT22;2166;49.926;8.608;2024-03-23T07:24:50;8.20;77.50
4306;DHT22;2166;49.926;8.608;2024-03-23T07:27:16;8.10;79.10
4306;DHT22;2166;49.926;8.608;2024-03-23T07:29:43;8.10;77.60
4306;DHT22;2166;49.926;8.608;2024-03-23T07:32:09;8.20;79.10
4306;DHT22;2166;49.926;8.608;2024-03-23T07:34:39;8.30;78.30
4306;DHT22;2166;49.926;8.608;2024-03-23T07:37:05;8.40;79.20
4306;DHT22;2166;49.926;8.608;2024-03-23T07:39:32;8.50;78.80
4306;DHT22;2166;49.926;8.608;2024-03-23T07:42:00;8.50;77.70
4306;DHT22;2166;49.926;8.608;2024-03-23T07:44:27;8.50;79.00
4306;DHT22;2166;49.926;8.608;2024-03-23T07:46:53;8.60;79.70
4306;DHT22;2166;49.926;8.608;2024-03-23T07:49:20;8.90;80.00
4306;DHT22;2166;49.926;8.608;2024-03-23T07:51:49;9.20;79.50
4306;DHT22;2166;49.926;8.608;2024-03-23T07:54:15;9.50;79.30
4306;DHT22;2166;49.926;8.608;2024-03-23T07:56:43;9.80;78.70
4306;DHT22;2166;49.926;8.608;2024-03-23T07:59:09;10.40;79.10
4306;DHT22;2166;49.926;8.608;2024-03-23T08:01:36;11.30;79.30
4306;DHT22;2166;49.926;8.608;2024-03-23T08:04:03;12.10;78.00
4306;DHT22;2166;49.926;8.608;2024-03-23T08:06:30;12.60;76.10
4306;DHT22;2166;49.926;8.608;2024-03-23T08:08:58;13.20;74.80
4306;DHT22;2166;49.926;8.608;2024-03-23T08:11:30;13.10;72.90
4306;DHT22;2166;49.926;8.608;2024-03-23T08:13:57;12.60;73.30
4306;DHT22;2166;49.926;8.608;2024-03-23T08:16:24;12.50;75.10
4306;DHT22;2166;49.926;8.608;2024-03-23T08:18:51;12.20;76.30
4306;DHT22;2166;49.926;8.608;2024-03-23T08:21:18;12.10;75.80
4306;DHT22;2166;49.926;8.608;2024-03-23T08:23:45;11.90;76.60
4306;DHT22;2166;49.926;8.608;2024-03-23T08:26:15;11.70;76.50
4306;DHT22;2166;49.926;8.608;2024-03-23T08:28:42;11.80;76.30
4306;DHT22;2166;49.926;8.608;2024-03-23T08:31:10;12.50;74.90
4306;DHT22;2166;49.926;8.608;2024-03-23T08:33:37;13.90;72.50
4306;DHT22;2166;49.926;8.608;2024-03-23T08:36:06;14.70;68.10
4306;DHT22;2166;49.926;8.608;2024-03-23T08:38:32;15.00;67.30
4306;DHT22;2166;49.926;8.608;2024-03-23T08:41:01;14.50;67.10
4306;DHT22;2166;49.926;8.608;2024-03-23T08:43:30;14.20;66.90
4306;DHT22;2166;49.926;8.608;2024-03-23T08:46:03;14.90;66.90
4306;DHT22;2166;49.926;8.608;2024-03-23T08:48:31;15.80;62.20
4306;DHT22;2166;49.926;8.608;2024-03-23T08:51:00;15.20;62.60
4306;DHT22;2166;49.926;8.608;2024-03-23T08:53:28;14.80;65.60
4306;DHT22;2166;49.926;8.608;2024-03-23T08:55:56;15.40;64.10
4306;DHT22;2166;49.926;8.608;2024-03-23T08:58:24;15.70;63.50
4306;DHT22;2166;49.926;8.608;2024-03-23T09:00:53;16.00;59.60
4306;DHT22;2166;49.926;8.608;2024-03-23T09:03:22;15.70;61.70
4306;DHT22;2166;49.926;8.608;2024-03-23T09:05:49;16.20;60.30
4306;DHT22;2166;49.926;8.608;2024-03-23T09:08:16;16.40;58.80
4306;DHT22;2166;49.926;8.608;2024-03-23T09:10:43;16.50;57.30
4306;DHT22;2166;49.926;8.608;2024-03-23T09:13:10;16.90;57.00
4306;DHT22;2166;49.926;8.608;2024-03-23T09:15:46;17.10;56.30
4306;DHT22;2166;49.926;8.608;2024-03-23T09:18:13;17.10;56.70
4306;DHT22;2166;49.926;8.608;2024-03-23T09:20:41;17.80;54.90
4306;DHT22;2166;49.926;8.608;2024-03-23T09:23:07;17.30;55.20
4306;DHT22;2166;49.926;8.608;2024-03-23T09:25:36;16.90;54.80
4306;DHT22;2166;49.926;8.608;2024-03-23T09:28:04;16.10;56.60
4306;DHT22;2166;49.926;8.608;2024-03-23T09:30:33;15.40;58.90
4306;DHT22;2166;49.926;8.608;2024-03-23T09:32:59;14.70;60.30
4306;DHT22;2166;49.926;8.608;2024-03-23T09:35:28;14.40;61.80
4306;DHT22;2166;49.926;8.608;2024-03-23T09:37:55;14.20;63.00
4306;DHT22;2166;49.926;8.608;2024-03-23T09:40:23;14.10;62.40
4306;DHT22;2166;49.926;8.608;2024-03-23T09:42:50;14.30;63.20
4306;DHT22;2166;49.926;8.608;2024-03-23T09:45:21;14.90;60.70
4306;DHT22;2166;49.926;8.608;2024-03-23T09:47:47;14.50;61.10
4306;DHT22;2166;49.926;8.608;2024-03-23T09:50:16;13.90;61.50
4306;DHT22;2166;49.926;8.608;2024-03-23T09:52:45;13.60;62.40
4306;DHT22;2166;49.926;8.608;2024-03-23T09:55:13;13.30;62.10
4306;DHT22;2166;49.926;8.608;2024-03-23T09:57:40;13.70;61.50
4306;DHT22;2166;49.926;8.608;2024-03-23T10:00:08;13.90;61.20
4306;DHT22;2166;49.926;8.608;2024-03-23T10:02:35;14.30;59.60
4306;DHT22;2166;49.926;8.608;2024-03-23T10:05:03;14.40;59.80
4306;DHT22;2166;49.926;8.608;2024-03-23T10:07:30;14.40;59.10
4306;DHT22;2166;49.926;8.608;2024-03-23T10:09:58;14.30;58.90
4306;DHT22;2166;49.926;8.608;2024-03-23T10:12:44;14.00;59.10
4306;DHT22;2166;49.926;8.608;2024-03-23T10:15:15;13.50;59.60
4306;DHT22;2166;49.926;8.608;2024-03-23T10:17:45;13.40;60.00
4306;DHT22;2166;49.926;8.608;2024-03-23T10:20:11;13.20;61.40
4306;DHT22;2166;49.926;8.608;2024-03-23T10:22:39;12.70;61.10
4306;DHT22;2166;49.926;8.608;2024-03-23T10:25:10;12.80;62.40
4306;DHT22;2166;49.926;8.608;2024-03-23T10:27:40;12.80;64.10
4306;DHT22;2166;49.926;8.608;2024-03-23T10:30:12;12.30;65.60
4306;DHT22;2166;49.926;8.608;2024-03-23T10:32:40;11.70;69.10
4306;DHT22;2166;49.926;8.608;2024-03-23T10:35:20;11.40;71.80
4306;DHT22;2166;49.926;8.608;2024-03-23T10:37:48;11.10;70.80
4306;DHT22;2166;49.926;8.608;2024-03-23T10:40:17;10.90;66.50
4306;DHT22;2166;49.926;8.608;2024-03-23T10:42:45;10.80;70.60
4306;DHT22;2166;49.926;8.608;2024-03-23T10:45:11;10.70;68.30
4306;DHT22;2166;49.926;8.608;2024-03-23T10:47:38;10.90;67.80
4306;DHT22;2166;49.926;8.608;2024-03-23T10:50:05;11.00;66.70
4306;DHT22;2166;49.926;8.608;2024-03-23T10:52:33;11.00;66.30
4306;DHT22;2166;49.926;8.608;2024-03-23T10:55:01;10.50;68.90
4306;DHT22;2166;49.926;8.608;2024-03-23T10:57:36;9.70;70.60
4306;DHT22;2166;49.926;8.608;2024-03-23T11:00:04;9.30;72.70
4306;DHT22;2166;49.926;8.608;2024-03-23T11:02:32;8.90;73.60
4306;DHT22;2166;49.926;8.608;2024-03-23T11:04:59;8.50;76.50
4306;DHT22;2166;49.926;8.608;2024-03-23T11:07:30;8.30;78.20
4306;DHT22;2166;49.926;8.608;2024-03-23T11:09:57;8.10;79.90
4306;DHT22;2166;49.926;8.608;2024-03-23T11:12:30;7.60;78.80
4306;DHT22;2166;49.926;8.608;2024-03-23T11:15:01;7.10;75.40
4306;DHT22;2166;49.926;8.608;2024-03-23T11:17:29;6.70;72.60
4306;DHT22;2166;49.926;8.608;2024-03-23T11:19:57;6.50;70.00
4306;DHT22;2166;49.926;8.608;2024-03-23T11:22:41;6.30;71.80
4306;DHT22;2166;49.926;8.608;2024-03-23T11:25:18;6.10;69.00
4306;DHT22;2166;49.926;8.608;2024-03-23T11:27:49;6.10;65.10
4306;DHT22;2166;49.926;8.608;2024-03-23T11:30:17;6.00;62.80
4306;DHT22;2166;49.926;8.608;2024-03-23T11:32:45;6.10;60.40
4306;DHT22;2166;49.926;8.608;2024-03-23T11:35:25;6.10;63.20
4306;DHT22;2166;49.926;8.608;2024-03-23T11:38:06;6.10;61.20
4306;DHT22;2166;49.926;8.608;2024-03-23T11:40:33;6.20;61.60
4306;DHT22;2166;49.926;8.608;2024-03-23T11:43:04;6.30;61.50
4306;DHT22;2166;49.926;8.608;2024-03-23T11:45:34;6.30;61.30
4306;DHT22;2166;49.926;8.608;2024-03-23T11:48:07;6.50;62.30
4306;DHT22;2166;49.926;8.608;2024-03-23T11:50:36;6.90;60.50
4306;DHT22;2166;49.926;8.608;2024-03-23T11:53:15;7.30;66.00
4306;DHT22;2166;49.926;8.608;2024-03-23T11:55:49;8.40;63.80
4306;DHT22;2166;49.926;8.608;2024-03-23T11:58:18;10.20;75.60
4306;DHT22;2166;49.926;8.608;2024-03-23T12:00:50;11.90;78.80
4306;DHT22;2166;49.926;8.608;2024-03-23T12:03:18;12.80;75.30
4306;DHT22;2166;49.926;8.608;2024-03-23T12:05:51;14.00;74.40
4306;DHT22;2166;49.926;8.608;2024-03-23T12:08:22;14.60;77.00
4306;DHT22;2166;49.926;8.608;2024-03-23T12:10:50;15.40;70.10
4306;DHT22;2166;49.926;8.608;2024-03-23T12:13:22;16.30;67.80
4306;DHT22;2166;49.926;8.608;2024-03-23T12:15:50;17.00;64.30
4306;DHT22;2166;49.926;8.608;2024-03-23T12:18:17;17.30;58.20
4306;DHT22;2166;49.926;8.608;2024-03-23T12:20:44;17.20;58.60
4306;DHT22;2166;49.926;8.608;2024-03-23T12:23:12;17.40;56.30
4306;DHT22;2166;49.926;8.608;2024-03-23T12:25:43;17.90;56.90
4306;DHT22;2166;49.926;8.608;2024-03-23T12:28:09;17.80;54.50
4306;DHT22;2166;49.926;8.608;2024-03-23T12:30:39;16.80;54.30
4306;DHT22;2166;49.926;8.608;2024-03-23T12:33:06;16.80;55.10
4306;DHT22;2166;49.926;8.608;2024-03-23T12:35:35;17.20;56.70
4306;DHT22;2166;49.926;8.608;2024-03-23T12:38:01;17.50;53.60
4306;DHT22;2166;49.926;8.608;2024-03-23T12:40:28;17.90;53.50
4306;DHT22;2166;49.926;8.608;2024-03-23T12:42:55;17.10;54.70
4306;DHT22;2166;49.926;8.608;2024-03-23T12:45:23;16.50;55.80
4306;DHT22;2166;49.926;8.608;2024-03-23T12:47:51;15.40;55.70
4306;DHT22;2166;49.926;8.608;2024-03-23T12:50:20;14.80;58.40
4306;DHT22;2166;49.926;8.608;2024-03-23T12:52:46;14.10;60.10
4306;DHT22;2166;49.926;8.608;2024-03-23T12:55:13;13.70;60.60
4306;DHT22;2166;49.926;8.608;2024-03-23T12:57:40;13.30;63.50
4306;DHT22;2166;49.926;8.608;2024-03-23T13:00:08;12.80;62.90
4306;DHT22;2166;49.926;8.608;2024-03-23T13:02:37;12.40;65.40
4306;DHT22;2166;49.926;8.608;2024-03-23T13:05:07;11.90;67.90
4306;DHT22;2166;49.926;8.608;2024-03-23T13:07:34;11.40;69.00
4306;DHT22;2166;49.926;8.608;2024-03-23T13:10:04;10.90;72.70
4306;DHT22;2166;49.926;8.608;2024-03-23T13:12:31;10.30;75.50
4306;DHT22;2166;49.926;8.608;2024-03-23T13:14:58;10.00;78.40
4306;DHT22;2166;49.926;8.608;2024-03-23T13:17:25;9.40;78.50
4306;DHT22;2166;49.926;8.608;2024-03-23T13:19:54;8.10;72.60
4306;DHT22;2166;49.926;8.608;2024-03-23T13:22:22;6.80;66.30
4306;DHT22;2166;49.926;8.608;2024-03-23T13:24:50;5.70;61.00
4306;DHT22;2166;49.926;8.608;2024-03-23T13:27:16;5.30;56.10
4306;DHT22;2166;49.926;8.608;2024-03-23T13:29:44;5.10;52.30
4306;DHT22;2166;49.926;8.608;2024-03-23T13:32:12;5.10;49.90
4306;DHT22;2166;49.926;8.608;2024-03-23T13:34:40;5.50;47.50
4306;DHT22;2166;49.926;8.608;2024-03-23T13:37:09;6.00;46.30
4306;DHT22;2166;49.926;8.608;2024-03-23T13:39:38;6.70;45.30
4306;DHT22;2166;49.926;8.608;2024-03-23T13:42:05;7.20;45.40
4306;DHT22;2166;49.926;8.608;2024-03-23T13:44:34;7.80;46.00
4306;DHT22;2166;49.926;8.608;2024-03-23T13:47:02;8.80;46.30
4306;DHT22;2166;49.926;8.608;2024-03-23T13:49:30;9.60;56.50
4306;DHT22;2166;49.926;8.608;2024-03-23T13:51:58;10.20;62.40
4306;DHT22;2166;49.926;8.608;2024-03-23T13:54:26;10.80;67.10
4306;DHT22;2166;49.926;8.608;2024-03-23T13:56:55;10.80;69.50
4306;DHT22;2166;49.926;8.608;2024-03-23T13:59:23;10.40;69.70
4306;DHT22;2166;49.926;8.608;2024-03-23T14:01:50;10.20;68.90
4306;DHT22;2166;49.926;8.608;2024-03-23T14:04:18;9.70;72.70
4306;DHT22;2166;49.926;8.608;2024-03-23T14:06:46;9.80;66.00
4306;DHT22;2166;49.926;8.608;2024-03-23T14:09:13;10.50;70.80
4306;DHT22;2166;49.926;8.608;2024-03-23T14:11:40;10.90;70.00
4306;DHT22;2166;49.926;8.608;2024-03-23T14:14:10;11.60;74.40
4306;DHT22;2166;49.926;8.608;2024-03-23T14:16:37;11.90;75.80
4306;DHT22;2166;49.926;8.608;2024-03-23T14:19:04;11.80;76.00
4306;DHT22;2166;49.926;8.608;2024-03-23T14:21:35;11.80;76.00
4306;DHT22;2166;49.926;8.608;2024-03-23T14:24:03;11.90;75.80
4306;DHT22;2166;49.926;8.608;2024-03-23T14:26:32;12.20;76.70
4306;DHT22;2166;49.926;8.608;2024-03-23T14:28:59;12.30;76.80
4306;DHT22;2166;49.926;8.608;2024-03-23T14:31:27;11.90;77.40
4306;DHT22;2166;49.926;8.608;2024-03-23T14:33:55;11.50;76.20
4306;DHT22;2166;49.926;8.608;2024-03-23T14:36:21;11.40;77.60
4306;DHT22;2166;49.926;8.608;2024-03-23T14:38:48;11.20;76.70
4306;DHT22;2166;49.926;8.608;2024-03-23T14:41:15;11.10;77.10
4306;DHT22;2166;49.926;8.608;2024-03-23T14:43:42;10.80;75.80
4306;DHT22;2166;49.926;8.608;2024-03-23T14:46:10;10.60;77.60
4306;DHT22;2166;49.926;8.608;2024-03-23T14:48:40;10.30;77.10
4306;DHT22;2166;49.926;8.608;2024-03-23T14:51:07;10.30;77.60
4306;DHT22;2166;49.926;8.608;2024-03-23T14:53:36;10.80;78.30
4306;DHT22;2166;49.926;8.608;2024-03-23T14:56:03;11.10;77.50
4306;DHT22;2166;49.926;8.608;2024-03-23T14:58:34;11.50;76.90
4306;DHT22;2166;49.926;8.608;2024-03-23T15:01:02;11.30;72.70
4306;DHT22;2166;49.926;8.608;2024-03-23T15:03:29;10.80;73.40
4306;DHT22;2166;49.926;8.608;2024-03-23T15:05:58;10.50;74.40
4306;DHT22;2166;49.926;8.608;2024-03-23T15:08:26;10.40;74.90
4306;DHT22;2166;49.926;8.608;2024-03-23T15:10:54;11.00;75.00
4306;DHT22;2166;49.926;8.608;2024-03-23T15:13:25;11.50;72.60
4306;DHT22;2166;49.926;8.608;2024-03-23T15:15:52;11.80;68.80
4306;DHT22;2166;49.926;8.608;2024-03-23T15:18:19;11.90;69.10
4306;DHT22;2166;49.926;8.608;2024-03-23T15:20:52;12.30;70.10
4306;DHT22;2166;49.926;8.608;2024-03-23T15:23:21;12.70;65.80
4306;DHT22;2166;49.926;8.608;2024-03-23T15:25:54;12.60;65.60
4306;DHT22;2166;49.926;8.608;2024-03-23T15:28:21;12.10;67.20
4306;DHT22;2166;49.926;8.608;2024-03-23T15:30:48;11.20;70.30
4306;DHT22;2166;49.926;8.608;2024-03-23T15:33:15;10.60;71.80
4306;DHT22;2166;49.926;8.608;2024-03-23T15:35:42;9.90;74.50
4306;DHT22;2166;49.926;8.608;2024-03-23T15:38:12;9.60;76.10
4306;DHT22;2166;49.926;8.608;2024-03-23T15:40:39;9.40;77.60
4306;DHT22;2166;49.926;8.608;2024-03-23T15:43:07;9.20;77.70
4306;DHT22;2166;49.926;8.608;2024-03-23T15:45:33;8.90;78.40
4306;DHT22;2166;49.926;8.608;2024-03-23T15:48:00;8.40;77.00
4306;DHT22;2166;49.926;8.608;2024-03-23T15:50:26;7.70;73.90
4306;DHT22;2166;49.926;8.608;2024-03-23T15:52:54;7.10;71.00
4306;DHT22;2166;49.926;8.608;2024-03-23T15:55:22;6.80;69.30
4306;DHT22;2166;49.926;8.608;2024-03-23T15:57:54;6.70;67.00
4306;DHT22;2166;49.926;8.608;2024-03-23T16:00:21;6.70;70.80
4306;DHT22;2166;49.926;8.608;2024-03-23T16:02:48;6.60;70.10
4306;DHT22;2166;49.926;8.608;2024-03-23T16:05:14;6.70;69.60
4306;DHT22;2166;49.926;8.608;2024-03-23T16:07:42;7.00;69.10
4306;DHT22;2166;49.926;8.608;2024-03-23T16:10:09;7.40;74.40
4306;DHT22;2166;49.926;8.608;2024-03-23T16:12:37;7.70;72.90
4306;DHT22;2166;49.926;8.608;2024-03-23T16:15:07;8.10;76.10
4306;DHT22;2166;49.926;8.608;2024-03-23T16:17:35;8.30;76.00
4306;DHT22;2166;49.926;8.608;2024-03-23T16:20:03;8.40;78.20
4306;DHT22;2166;49.926;8.608;2024-03-23T16:22:35;8.30;78.00
4306;DHT22;2166;49.926;8.608;2024-03-23T16:25:01;8.00;78.30
4306;DHT22;2166;49.926;8.608;2024-03-23T16:27:29;7.80;77.50
4306;DHT22;2166;49.926;8.608;2024-03-23T16:29:56;7.70;77.10
4306;DHT22;2166;49.926;8.608;2024-03-23T16:32:25;7.60;77.70
4306;DHT22;2166;49.926;8.608;2024-03-23T16:34:53;7.60;77.10
4306;DHT22;2166;49.926;8.608;2024-03-23T16:37:20;7.60;77.70
4306;DHT22;2166;49.926;8.608;2024-03-23T16:39:47;7.80;77.00
4306;DHT22;2166;49.926;8.608;2024-03-23T16:42:14;7.90;77.90
4306;DHT22;2166;49.926;8.608;2024-03-23T16:44:41;8.00;78.30
4306;DHT22;2166;49.926;8.608;2024-03-23T16:47:08;8.00;77.20
4306;DHT22;2166;49.926;8.608;2024-03-23T16:49:37;8.00;77.00
4306;DHT22;2166;49.926;8.608;2024-03-23T16:52:04;8.00;77.80
4306;DHT22;2166;49.926;8.608;2024-03-23T16:54:31;7.90;77.40
4306;DHT22;2166;49.926;8.608;2024-03-23T16:56:58;7.80;77.70
4306;DHT22;2166;49.926;8.608;2024-03-23T16:59:24;7.70;78.10
4306;DHT22;2166;49.926;8.608;2024-03-23T17:01:52;7.50;78.10
4306;DHT22;2166;49.926;8.608;2024-03-23T17:04:21;7.40;77.70
4306;DHT22;2166;49.926;8.608;2024-03-23T17:06:51;7.40;78.80